sensor_id;sensor_type;location;lat;lon;timestamp;temperature;humidity
10247;DHT22;5168;47.854;7.944;2023-06-26T00:00:42;17.50;98.70
10247;DHT22;5168;47.854;7.944;2023-06-26T00:10:29;17.70;95.80
10247;DHT22;5168;47.854;7.944;2023-06-26T00:12:57;17.30;99.60
10247;DHT22;5168;47.854;7.944;2023-06-26T00:15:23;17.80;99.90
10247;DHT22;5168;47.854;7.944;2023-06-26T00:17:49;18.00;99.90
10247;DHT22;5168;47.854;7.944;2023-06-26T00:20:16;17.40;99.80
10247;DHT22;5168;47.854;7.944;2023-06-26T00:22:45;17.20;99.90
10247;DHT22;5168;47.854;7.944;2023-06-26T00:25:12;17.70;96.40
10247;DHT22;5168;47.854;7.944;2023-06-26T00:30:08;17.30;99.90
10247;DHT22;5168;47.854;7.944;2023-06-26T00:32:34;17.90;99.90
10247;DHT22;5168;47.854;7.944;2023-06-26T00:34:59;17.10;99.90
10247;DHT22;5168;47.854;7.944;2023-06-26T00:37:25;17.60;99.90
10247;DHT22;5168;47.854;7.944;2023-06-26T00:42:16;17.20;99.90
10247;DHT22;5168;47.854;7.944;2023-06-26T00:44:42;17.20;99.90
10247;DHT22;5168;47.854;7.944;2023-06-26T00:47:08;17.60;97.80
10247;DHT22;5168;47.854;7.944;2023-06-26T00:49:34;17.30;99.90
10247;DHT22;5168;47.854;7.944;2023-06-26T00:54:25;17.20;99.80
10247;DHT22;5168;47.854;7.944;2023-06-26T00:56:54;17.70;99.90
10247;DHT22;5168;47.854;7.944;2023-06-26T00:59:19;16.90;99.90
10247;DHT22;5168;47.854;7.944;2023-06-26T01:01:45;17.10;99.90
10247;DHT22;5168;47.854;7.944;2023-06-26T01:04:13;17.50;99.90
10247;DHT22;5168;47.854;7.944;2023-06-26T01:06:48;17.00;99.90
10247;DHT22;5168;47.854;7.944;2023-06-26T01:09:19;17.30;97.90
10247;DHT22;5168;47.854;7.944;2023-06-26T01:11:47;17.50;99.90
10247;DHT22;5168;47.854;7.944;2023-06-26T01:14:15;16.90;99.90
10247;DHT22;5168;47.854;7.944;2023-06-26T01:16:41;17.40;99.60
10247;DHT22;5168;47.854;7.944;2023-06-26T01:19:33;17.80;99.90
10247;DHT22;5168;47.854;7.944;2023-06-26T01:25:21;17.20;97.90
10247;DHT22;5168;47.854;7.944;2023-06-26T01:27:50;17.00;99.90
10247;DHT22;5168;47.854;7.944;2023-06-26T01:30:16;17.10;99.90
10247;DHT22;5168;47.854;7.944;2023-06-26T01:32:44;16.50;97.70
10247;DHT22;5168;47.854;7.944;2023-06-26T01:35:09;17.40;98.40
10247;DHT22;5168;47.854;7.944;2023-06-26T01:37:36;17.60;99.90
10247;DHT22;5168;47.854;7.944;2023-06-26T01:40:04;17.10;98.10
10247;DHT22;5168;47.854;7.944;2023-06-26T01:42:35;17.20;99.90
10247;DHT22;5168;47.854;7.944;2023-06-26T01:45:27;16.60;99.90
10247;DHT22;5168;47.854;7.944;2023-06-26T01:47:57;17.10;99.90
10247;DHT22;5168;47.854;7.944;2023-06-26T01:50:28;16.70;99.90
10247;DHT22;5168;47.854;7.944;2023-06-26T01:53:04;16.90;99.90
10247;DHT22;5168;47.854;7.944;2023-06-26T01:56:06;17.10;98.10
10247;DHT22;5168;47.854;7.944;2023-06-26T01:58:33;17.40;99.90
10247;DHT22;5168;47.854;7.944;2023-06-26T02:00:59;17.20;99.90
10247;DHT22;5168;47.854;7.944;2023-06-26T02:05:51;17.20;99.90
10247;DHT22;5168;47.854;7.944;2023-06-26T02:08:17;16.50;99.20
10247;DHT22;5168;47.854;7.944;2023-06-26T02:15:34;17.30;99.90
10247;DHT22;5168;47.854;7.944;2023-06-26T02:20:26;17.20;99.90
10247;DHT22;5168;47.854;7.944;2023-06-26T02:39:58;17.00;99.90
10247;DHT22;5168;47.854;7.944;2023-06-26T02:42:25;16.20;99.90
10247;DHT22;5168;47.854;7.944;2023-06-26T02:44:51;16.70;99.90
10247;DHT22;5168;47.854;7.944;2023-06-26T02:47:17;16.50;99.90
10247;DHT22;5168;47.854;7.944;2023-06-26T02:52:08;16.50;99.70
10247;DHT22;5168;47.854;7.944;2023-06-26T02:54:34;16.60;99.90
10247;DHT22;5168;47.854;7.944;2023-06-26T02:57:00;16.60;99.90
10247;DHT22;5168;47.854;7.944;2023-06-26T02:59:26;16.20;99.90
10247;DHT22;5168;47.854;7.944;2023-06-26T03:04:18;16.40;99.90
10247;DHT22;5168;47.854;7.944;2023-06-26T03:06:47;16.10;99.90
10247;DHT22;5168;47.854;7.944;2023-06-26T03:11:38;16.80;99.90
10247;DHT22;5168;47.854;7.944;2023-06-26T03:21:21;16.80;99.90
10247;DHT22;5168;47.854;7.944;2023-06-26T03:23:47;16.10;99.90
10247;DHT22;5168;47.854;7.944;2023-06-26T03:26:12;16.00;99.90
10247;DHT22;5168;47.854;7.944;2023-06-26T03:28:40;16.20;99.90
10247;DHT22;5168;47.854;7.944;2023-06-26T03:31:05;16.10;99.90
10247;DHT22;5168;47.854;7.944;2023-06-26T03:35:57;16.40;99.90
10247;DHT22;5168;47.854;7.944;2023-06-26T03:40:50;16.70;99.90
10247;DHT22;5168;47.854;7.944;2023-06-26T03:57:51;15.50;99.90
10247;DHT22;5168;47.854;7.944;2023-06-26T04:00:17;16.40;99.90
10247;DHT22;5168;47.854;7.944;2023-06-26T04:02:43;15.70;99.90
10247;DHT22;5168;47.854;7.944;2023-06-26T04:07:34;16.00;99.90
10247;DHT22;5168;47.854;7.944;2023-06-26T04:10:01;16.30;99.90
10247;DHT22;5168;47.854;7.944;2023-06-26T04:19:47;16.30;99.90
10247;DHT22;5168;47.854;7.944;2023-06-26T04:34:29;16.80;99.90
10247;DHT22;5168;47.854;7.944;2023-06-26T04:36:59;16.40;99.90
10247;DHT22;5168;47.854;7.944;2023-06-26T04:39:24;16.30;99.90
10247;DHT22;5168;47.854;7.944;2023-06-26T04:41:52;17.00;99.90
10247;DHT22;5168;47.854;7.944;2023-06-26T04:44:18;16.10;99.90
10247;DHT22;5168;47.854;7.944;2023-06-26T04:49:10;16.60;99.90
10247;DHT22;5168;47.854;7.944;2023-06-26T04:54:12;17.10;99.90
10247;DHT22;5168;47.854;7.944;2023-06-26T04:56:39;17.90;99.90
10247;DHT22;5168;47.854;7.944;2023-06-26T04:59:05;17.60;99.90
10247;DHT22;5168;47.854;7.944;2023-06-26T05:04:01;18.10;99.90
10247;DHT22;5168;47.854;7.944;2023-06-26T05:06:27;18.00;99.90
10247;DHT22;5168;47.854;7.944;2023-06-26T05:08:53;18.50;99.90
10247;DHT22;5168;47.854;7.944;2023-06-26T05:13:49;18.80;99.90
10247;DHT22;5168;47.854;7.944;2023-06-26T05:23:34;19.10;99.90
10247;DHT22;5168;47.854;7.944;2023-06-26T05:26:00;19.20;99.90
10247;DHT22;5168;47.854;7.944;2023-06-26T05:28:27;19.30;99.90
10247;DHT22;5168;47.854;7.944;2023-06-26T05:30:53;19.50;99.90
10247;DHT22;5168;47.854;7.944;2023-06-26T05:33:21;19.60;99.90
10247;DHT22;5168;47.854;7.944;2023-06-26T05:35:49;20.20;99.90
10247;DHT22;5168;47.854;7.944;2023-06-26T05:38:17;19.90;99.90
10247;DHT22;5168;47.854;7.944;2023-06-26T05:40:42;19.50;99.90
10247;DHT22;5168;47.854;7.944;2023-06-26T05:43:09;20.30;99.90
10247;DHT22;5168;47.854;7.944;2023-06-26T05:48:03;20.10;99.90
10247;DHT22;5168;47.854;7.944;2023-06-26T05:52:55;20.30;99.90
10247;DHT22;5168;47.854;7.944;2023-06-26T05:57:47;21.20;99.90
10247;DHT22;5168;47.854;7.944;2023-06-26T06:02:39;21.20;99.90
10247;DHT22;5168;47.854;7.944;2023-06-26T06:05:06;20.90;99.90
10247;DHT22;5168;47.854;7.944;2023-06-26T06:07:32;21.40;99.90
10247;DHT22;5168;47.854;7.944;2023-06-26T06:09:59;21.80;99.90
10247;DHT22;5168;47.854;7.944;2023-06-26T06:12:27;21.10;99.90
10247;DHT22;5168;47.854;7.944;2023-06-26T06:14:53;21.40;99.90
10247;DHT22;5168;47.854;7.944;2023-06-26T06:17:20;21.50;99.90
10247;DHT22;5168;47.854;7.944;2023-06-26T06:22:11;21.90;99.90
10247;DHT22;5168;47.854;7.944;2023-06-26T06:24:37;21.30;99.90
10247;DHT22;5168;47.854;7.944;2023-06-26T06:29:29;21.60;99.90
10247;DHT22;5168;47.854;7.944;2023-06-26T06:36:46;21.80;99.90
10247;DHT22;5168;47.854;7.944;2023-06-26T06:39:12;22.40;99.90
10247;DHT22;5168;47.854;7.944;2023-06-26T06:41:38;22.30;99.90
10247;DHT22;5168;47.854;7.944;2023-06-26T06:44:04;22.60;99.90
10247;DHT22;5168;47.854;7.944;2023-06-26T06:46:29;23.00;99.90
10247;DHT22;5168;47.854;7.944;2023-06-26T06:48:55;22.70;98.70
10247;DHT22;5168;47.854;7.944;2023-06-26T06:51:22;22.40;99.80
10247;DHT22;5168;47.854;7.944;2023-06-26T06:56:14;22.80;99.30
10247;DHT22;5168;47.854;7.944;2023-06-26T06:58:41;23.30;99.90
10247;DHT22;5168;47.854;7.944;2023-06-26T07:03:35;23.40;99.90
10247;DHT22;5168;47.854;7.944;2023-06-26T07:06:02;23.80;99.90
10247;DHT22;5168;47.854;7.944;2023-06-26T07:08:28;23.20;99.90
10247;DHT22;5168;47.854;7.944;2023-06-26T07:15:47;23.90;99.90
10247;DHT22;5168;47.854;7.944;2023-06-26T07:18:13;23.40;98.50
10247;DHT22;5168;47.854;7.944;2023-06-26T07:23:05;24.00;99.90
10247;DHT22;5168;47.854;7.944;2023-06-26T07:25:31;24.10;99.20
10247;DHT22;5168;47.854;7.944;2023-06-26T07:30:22;24.30;99.90
10247;DHT22;5168;47.854;7.944;2023-06-26T07:35:15;24.30;97.80
10247;DHT22;5168;47.854;7.944;2023-06-26T07:40:07;24.40;99.90
10247;DHT22;5168;47.854;7.944;2023-06-26T07:49:51;25.10;99.90
10247;DHT22;5168;47.854;7.944;2023-06-26T07:52:20;25.10;97.90
10247;DHT22;5168;47.854;7.944;2023-06-26T07:54:48;25.70;99.90
10247;DHT22;5168;47.854;7.944;2023-06-26T08:04:32;25.50;99.90
10247;DHT22;5168;47.854;7.944;2023-06-26T08:06:59;25.90;98.30
10247;DHT22;5168;47.854;7.944;2023-06-26T08:09:28;25.50;99.20
10247;DHT22;5168;47.854;7.944;2023-06-26T08:11:54;26.00;99.90
10247;DHT22;5168;47.854;7.944;2023-06-26T08:14:20;25.30;97.50
10247;DHT22;5168;47.854;7.944;2023-06-26T08:16:46;25.80;99.90
10247;DHT22;5168;47.854;7.944;2023-06-26T08:19:13;25.80;99.90
10247;DHT22;5168;47.854;7.944;2023-06-26T08:21:42;26.00;99.80
10247;DHT22;5168;47.854;7.944;2023-06-26T08:24:09;26.30;99.70
10247;DHT22;5168;47.854;7.944;2023-06-26T08:26:35;26.10;99.20
10247;DHT22;5168;47.854;7.944;2023-06-26T08:29:01;25.90;99.40
10247;DHT22;5168;47.854;7.944;2023-06-26T08:31:36;25.70;96.90
10247;DHT22;5168;47.854;7.944;2023-06-26T08:34:02;25.90;99.80
10247;DHT22;5168;47.854;7.944;2023-06-26T08:36:28;26.10;98.30
10247;DHT22;5168;47.854;7.944;2023-06-26T08:43:46;26.70;99.00
10247;DHT22;5168;47.854;7.944;2023-06-26T08:46:13;26.60;96.20
10247;DHT22;5168;47.854;7.944;2023-06-26T08:48:42;26.80;98.40
10247;DHT22;5168;47.854;7.944;2023-06-26T08:51:13;26.60;98.70
10247;DHT22;5168;47.854;7.944;2023-06-26T08:56:13;26.60;98.40
10247;DHT22;5168;47.854;7.944;2023-06-26T08:58:40;26.30;99.20
10247;DHT22;5168;47.854;7.944;2023-06-26T09:01:06;26.20;99.40
10247;DHT22;5168;47.854;7.944;2023-06-26T09:03:32;26.60;98.80
10247;DHT22;5168;47.854;7.944;2023-06-26T09:08:24;26.30;98.80
10247;DHT22;5168;47.854;7.944;2023-06-26T09:10:49;25.60;97.00
10247;DHT22;5168;47.854;7.944;2023-06-26T09:15:45;25.90;95.80
10247;DHT22;5168;47.854;7.944;2023-06-26T09:18:12;26.00;99.60
10247;DHT22;5168;47.854;7.944;2023-06-26T09:25:30;26.30;98.60
10247;DHT22;5168;47.854;7.944;2023-06-26T09:27:56;27.20;96.70
10247;DHT22;5168;47.854;7.944;2023-06-26T09:30:22;26.60;96.70
10247;DHT22;5168;47.854;7.944;2023-06-26T09:32:48;26.50;95.60
10247;DHT22;5168;47.854;7.944;2023-06-26T09:35:16;26.00;98.20
10247;DHT22;5168;47.854;7.944;2023-06-26T09:40:11;27.00;99.70
10247;DHT22;5168;47.854;7.944;2023-06-26T09:42:37;26.00;99.10
10247;DHT22;5168;47.854;7.944;2023-06-26T09:45:03;26.20;99.30
10247;DHT22;5168;47.854;7.944;2023-06-26T09:47:31;26.10;99.60
10247;DHT22;5168;47.854;7.944;2023-06-26T09:49:59;26.20;97.70
10247;DHT22;5168;47.854;7.944;2023-06-26T09:52:26;25.70;96.00
10247;DHT22;5168;47.854;7.944;2023-06-26T09:55:07;26.00;99.90
10247;DHT22;5168;47.854;7.944;2023-06-26T09:57:34;25.60;98.70
10247;DHT22;5168;47.854;7.944;2023-06-26T10:00:02;25.30;96.40
10247;DHT22;5168;47.854;7.944;2023-06-26T10:02:28;25.40;98.90
10247;DHT22;5168;47.854;7.944;2023-06-26T10:07:20;25.20;99.90
10247;DHT22;5168;47.854;7.944;2023-06-26T10:09:46;25.10;97.00
10247;DHT22;5168;47.854;7.944;2023-06-26T10:12:18;25.70;97.10
10247;DHT22;5168;47.854;7.944;2023-06-26T10:14:45;24.50;99.90
10247;DHT22;5168;47.854;7.944;2023-06-26T10:17:12;25.30;99.10
10247;DHT22;5168;47.854;7.944;2023-06-26T10:19:39;24.80;99.90
10247;DHT22;5168;47.854;7.944;2023-06-26T10:22:07;24.80;98.80
10247;DHT22;5168;47.854;7.944;2023-06-26T10:24:35;24.30;99.90
10247;DHT22;5168;47.854;7.944;2023-06-26T10:27:10;24.90;99.90
10247;DHT22;5168;47.854;7.944;2023-06-26T10:29:40;24.60;99.90
10247;DHT22;5168;47.854;7.944;2023-06-26T10:32:06;24.30;99.50
10247;DHT22;5168;47.854;7.944;2023-06-26T10:37:00;24.30;99.90
10247;DHT22;5168;47.854;7.944;2023-06-26T10:39:26;24.30;99.90
10247;DHT22;5168;47.854;7.944;2023-06-26T10:41:54;24.30;99.90
10247;DHT22;5168;47.854;7.944;2023-06-26T10:44:20;24.60;99.90
10247;DHT22;5168;47.854;7.944;2023-06-26T10:46:52;24.30;99.90
10247;DHT22;5168;47.854;7.944;2023-06-26T10:49:29;24.10;99.90
10247;DHT22;5168;47.854;7.944;2023-06-26T10:52:00;23.70;99.90
10247;DHT22;5168;47.854;7.944;2023-06-26T10:54:29;24.20;99.90
10247;DHT22;5168;47.854;7.944;2023-06-26T10:56:56;23.90;99.90
10247;DHT22;5168;47.854;7.944;2023-06-26T10:59:27;23.90;99.90
10247;DHT22;5168;47.854;7.944;2023-06-26T11:04:39;24.10;99.90
10247;DHT22;5168;47.854;7.944;2023-06-26T11:07:22;24.50;99.90
10247;DHT22;5168;47.854;7.944;2023-06-26T11:12:41;25.30;99.90
10247;DHT22;5168;47.854;7.944;2023-06-26T11:15:14;25.30;99.30
10247;DHT22;5168;47.854;7.944;2023-06-26T11:17:40;25.60;99.90
10247;DHT22;5168;47.854;7.944;2023-06-26T11:20:08;25.80;99.90
10247;DHT22;5168;47.854;7.944;2023-06-26T11:22:41;25.90;99.90
10247;DHT22;5168;47.854;7.944;2023-06-26T11:25:08;26.40;98.30
10247;DHT22;5168;47.854;7.944;2023-06-26T11:27:43;26.10;99.30
10247;DHT22;5168;47.854;7.944;2023-06-26T11:30:23;26.50;95.00
10247;DHT22;5168;47.854;7.944;2023-06-26T11:32:49;26.50;98.90
10247;DHT22;5168;47.854;7.944;2023-06-26T11:35:25;26.50;96.30
10247;DHT22;5168;47.854;7.944;2023-06-26T11:37:57;26.50;99.50
10247;DHT22;5168;47.854;7.944;2023-06-26T11:42:58;27.20;99.90
10247;DHT22;5168;47.854;7.944;2023-06-26T11:47:51;27.50;99.00
10247;DHT22;5168;47.854;7.944;2023-06-26T11:52:43;27.40;97.20
10247;DHT22;5168;47.854;7.944;2023-06-26T11:55:08;27.20;95.50
10247;DHT22;5168;47.854;7.944;2023-06-26T11:57:36;27.80;98.80
10247;DHT22;5168;47.854;7.944;2023-06-26T12:00:14;27.30;96.10
10247;DHT22;5168;47.854;7.944;2023-06-26T12:05:07;26.70;96.70
10247;DHT22;5168;47.854;7.944;2023-06-26T12:10:00;26.30;99.90
10247;DHT22;5168;47.854;7.944;2023-06-26T12:12:26;26.50;99.90
10247;DHT22;5168;47.854;7.944;2023-06-26T12:14:52;26.30;99.90
10247;DHT22;5168;47.854;7.944;2023-06-26T12:17:22;25.70;99.90
10247;DHT22;5168;47.854;7.944;2023-06-26T12:19:48;25.90;99.90
10247;DHT22;5168;47.854;7.944;2023-06-26T12:22:15;25.80;99.90
10247;DHT22;5168;47.854;7.944;2023-06-26T12:27:13;25.30;99.90
10247;DHT22;5168;47.854;7.944;2023-06-26T12:29:40;25.50;99.90
10247;DHT22;5168;47.854;7.944;2023-06-26T12:32:10;26.00;99.90
10247;DHT22;5168;47.854;7.944;2023-06-26T12:34:39;26.20;99.20
10247;DHT22;5168;47.854;7.944;2023-06-26T12:37:09;26.30;99.90
10247;DHT22;5168;47.854;7.944;2023-06-26T12:39:48;26.30;99.90
10247;DHT22;5168;47.854;7.944;2023-06-26T12:42:18;27.00;99.90
10247;DHT22;5168;47.854;7.944;2023-06-26T12:44:44;25.70;99.90
10247;DHT22;5168;47.854;7.944;2023-06-26T12:47:10;25.40;99.90
10247;DHT22;5168;47.854;7.944;2023-06-26T12:49:39;25.70;99.90
10247;DHT22;5168;47.854;7.944;2023-06-26T12:52:07;25.90;99.90
10247;DHT22;5168;47.854;7.944;2023-06-26T12:54:34;26.10;99.90
10247;DHT22;5168;47.854;7.944;2023-06-26T12:57:00;26.40;99.90
10247;DHT22;5168;47.854;7.944;2023-06-26T12:59:25;27.20;99.90
10247;DHT22;5168;47.854;7.944;2023-06-26T13:09:09;25.90;99.90
10247;DHT22;5168;47.854;7.944;2023-06-26T13:11:36;25.90;99.90
10247;DHT22;5168;47.854;7.944;2023-06-26T13:14:02;26.20;99.80
10247;DHT22;5168;47.854;7.944;2023-06-26T13:16:28;25.90;99.90
10247;DHT22;5168;47.854;7.944;2023-06-26T13:21:21;26.30;99.90
10247;DHT22;5168;47.854;7.944;2023-06-26T13:23:46;27.20;99.90
10247;DHT22;5168;47.854;7.944;2023-06-26T13:31:04;26.50;99.90
10247;DHT22;5168;47.854;7.944;2023-06-26T13:33:30;26.40;98.10
10247;DHT22;5168;47.854;7.944;2023-06-26T13:35:56;26.50;99.90
10247;DHT22;5168;47.854;7.944;2023-06-26T13:38:22;26.80;99.90
10247;DHT22;5168;47.854;7.944;2023-06-26T13:40:51;26.10;99.90
10247;DHT22;5168;47.854;7.944;2023-06-26T13:43:17;25.80;99.90
10247;DHT22;5168;47.854;7.944;2023-06-26T13:45:42;26.60;99.90
10247;DHT22;5168;47.854;7.944;2023-06-26T13:48:08;26.30;99.50
10247;DHT22;5168;47.854;7.944;2023-06-26T13:55:25;25.50;99.60
10247;DHT22;5168;47.854;7.944;2023-06-26T13:57:51;25.90;99.90
10247;DHT22;5168;47.854;7.944;2023-06-26T14:00:17;26.40;99.90
10247;DHT22;5168;47.854;7.944;2023-06-26T14:02:46;26.50;99.90
10247;DHT22;5168;47.854;7.944;2023-06-26T14:05:11;26.00;99.80
10247;DHT22;5168;47.854;7.944;2023-06-26T14:07:37;26.10;99.50
10247;DHT22;5168;47.854;7.944;2023-06-26T14:10:04;26.10;99.90
10247;DHT22;5168;47.854;7.944;2023-06-26T14:12:31;26.40;99.90
10247;DHT22;5168;47.854;7.944;2023-06-26T14:19:52;26.00;98.00
10247;DHT22;5168;47.854;7.944;2023-06-26T14:22:17;25.70;99.90
10247;DHT22;5168;47.854;7.944;2023-06-26T14:24:43;26.90;97.70
10247;DHT22;5168;47.854;7.944;2023-06-26T14:29:36;26.10;99.90
10247;DHT22;5168;47.854;7.944;2023-06-26T14:32:01;26.10;97.30
10247;DHT22;5168;47.854;7.944;2023-06-26T14:39:19;26.00;99.90
10247;DHT22;5168;47.854;7.944;2023-06-26T14:41:45;26.40;99.90
10247;DHT22;5168;47.854;7.944;2023-06-26T14:44:10;26.00;99.90
10247;DHT22;5168;47.854;7.944;2023-06-26T14:46:36;26.00;98.20
10247;DHT22;5168;47.854;7.944;2023-06-26T14:49:02;25.80;96.50
10247;DHT22;5168;47.854;7.944;2023-06-26T14:53:54;25.50;99.70
10247;DHT22;5168;47.854;7.944;2023-06-26T14:56:20;25.50;99.70
10247;DHT22;5168;47.854;7.944;2023-06-26T15:11:01;24.80;99.90
10247;DHT22;5168;47.854;7.944;2023-06-26T15:13:27;24.80;99.90
10247;DHT22;5168;47.854;7.944;2023-06-26T15:15:52;24.40;99.90
10247;DHT22;5168;47.854;7.944;2023-06-26T15:20:44;23.90;99.30
10247;DHT22;5168;47.854;7.944;2023-06-26T15:25:35;23.90;99.90
10247;DHT22;5168;47.854;7.944;2023-06-26T15:28:03;24.20;97.40
10247;DHT22;5168;47.854;7.944;2023-06-26T15:30:28;24.10;99.90
10247;DHT22;5168;47.854;7.944;2023-06-26T15:40:12;24.70;99.90
10247;DHT22;5168;47.854;7.944;2023-06-26T15:42:47;24.10;99.90
10247;DHT22;5168;47.854;7.944;2023-06-26T15:45:14;24.50;99.80
10247;DHT22;5168;47.854;7.944;2023-06-26T15:47:40;24.60;99.90
10247;DHT22;5168;47.854;7.944;2023-06-26T15:50:07;24.50;96.50
10247;DHT22;5168;47.854;7.944;2023-06-26T15:54:58;25.20;96.00
10247;DHT22;5168;47.854;7.944;2023-06-26T15:57:24;24.70;98.90
10247;DHT22;5168;47.854;7.944;2023-06-26T15:59:49;24.30;98.40
10247;DHT22;5168;47.854;7.944;2023-06-26T16:07:08;24.10;99.80
10247;DHT22;5168;47.854;7.944;2023-06-26T16:09:34;23.70;97.30
10247;DHT22;5168;47.854;7.944;2023-06-26T16:11:59;24.40;99.20
10247;DHT22;5168;47.854;7.944;2023-06-26T16:14:25;23.50;98.40
10247;DHT22;5168;47.854;7.944;2023-06-26T16:16:50;23.30;98.50
10247;DHT22;5168;47.854;7.944;2023-06-26T16:24:08;23.50;99.50
10247;DHT22;5168;47.854;7.944;2023-06-26T16:26:34;23.20;99.40
10247;DHT22;5168;47.854;7.944;2023-06-26T16:29:00;23.20;99.20
10247;DHT22;5168;47.854;7.944;2023-06-26T16:31:25;23.40;99.40
10247;DHT22;5168;47.854;7.944;2023-06-26T16:33:51;22.90;97.70
10247;DHT22;5168;47.854;7.944;2023-06-26T16:41:09;22.50;96.50
10247;DHT22;5168;47.854;7.944;2023-06-26T16:46:01;22.80;99.90
10247;DHT22;5168;47.854;7.944;2023-06-26T16:53:19;21.70;99.30
10247;DHT22;5168;47.854;7.944;2023-06-26T16:55:44;22.30;99.90
10247;DHT22;5168;47.854;7.944;2023-06-26T16:58:11;21.80;99.90
10247;DHT22;5168;47.854;7.944;2023-06-26T17:00:36;22.00;99.90
10247;DHT22;5168;47.854;7.944;2023-06-26T17:03:04;22.30;99.90
10247;DHT22;5168;47.854;7.944;2023-06-26T17:10:22;21.70;99.90
10247;DHT22;5168;47.854;7.944;2023-06-26T17:12:47;22.30;99.90
10247;DHT22;5168;47.854;7.944;2023-06-26T17:15:13;22.30;99.90
10247;DHT22;5168;47.854;7.944;2023-06-26T17:20:05;21.90;97.50
10247;DHT22;5168;47.854;7.944;2023-06-26T17:22:35;22.40;99.90
10247;DHT22;5168;47.854;7.944;2023-06-26T17:25:00;21.70;99.90
10247;DHT22;5168;47.854;7.944;2023-06-26T17:27:30;22.00;99.90
10247;DHT22;5168;47.854;7.944;2023-06-26T17:29:56;21.20;98.30
10247;DHT22;5168;47.854;7.944;2023-06-26T17:32:21;21.50;99.50
10247;DHT22;5168;47.854;7.944;2023-06-26T17:51:50;20.40;99.90
10247;DHT22;5168;47.854;7.944;2023-06-26T17:54:15;20.50;99.90
10247;DHT22;5168;47.854;7.944;2023-06-26T18:01:37;20.20;99.90
10247;DHT22;5168;47.854;7.944;2023-06-26T18:08:54;20.20;99.90
10247;DHT22;5168;47.854;7.944;2023-06-26T18:11:20;19.70;99.90
10247;DHT22;5168;47.854;7.944;2023-06-26T18:13:45;20.20;99.90
10247;DHT22;5168;47.854;7.944;2023-06-26T18:16:11;19.60;99.70
10247;DHT22;5168;47.854;7.944;2023-06-26T18:18:38;20.00;99.90
10247;DHT22;5168;47.854;7.944;2023-06-26T18:21:04;19.80;99.90
10247;DHT22;5168;47.854;7.944;2023-06-26T18:23:30;19.50;99.90
10247;DHT22;5168;47.854;7.944;2023-06-26T18:33:13;19.40;99.90
10247;DHT22;5168;47.854;7.944;2023-06-26T18:35:39;18.90;99.90
10247;DHT22;5168;47.854;7.944;2023-06-26T18:47:54;18.90;99.90
10247;DHT22;5168;47.854;7.944;2023-06-26T18:50:19;18.80;99.90
10247;DHT22;5168;47.854;7.944;2023-06-26T18:52:48;18.30;99.90
10247;DHT22;5168;47.854;7.944;2023-06-26T18:55:13;18.80;99.90
10247;DHT22;5168;47.854;7.944;2023-06-26T19:00:06;18.80;99.90
10247;DHT22;5168;47.854;7.944;2023-06-26T19:02:33;18.30;99.90
10247;DHT22;5168;47.854;7.944;2023-06-26T19:04:59;18.70;99.90
10247;DHT22;5168;47.854;7.944;2023-06-26T19:07:25;18.40;99.90
10247;DHT22;5168;47.854;7.944;2023-06-26T19:09:50;18.70;99.90
10247;DHT22;5168;47.854;7.944;2023-06-26T19:12:16;17.90;99.90
10247;DHT22;5168;47.854;7.944;2023-06-26T19:14:43;17.70;99.90
10247;DHT22;5168;47.854;7.944;2023-06-26T19:22:01;17.70;99.90
10247;DHT22;5168;47.854;7.944;2023-06-26T19:24:27;17.40;99.90
10247;DHT22;5168;47.854;7.944;2023-06-26T19:26:52;17.20;99.90
10247;DHT22;5168;47.854;7.944;2023-06-26T19:41:32;16.90;99.90
10247;DHT22;5168;47.854;7.944;2023-06-26T19:43:58;17.50;99.90
10247;DHT22;5168;47.854;7.944;2023-06-26T19:46:23;17.60;99.90
10247;DHT22;5168;47.854;7.944;2023-06-26T19:51:15;17.20;99.90
10247;DHT22;5168;47.854;7.944;2023-06-26T19:53:40;17.50;99.90
10247;DHT22;5168;47.854;7.944;2023-06-26T19:58:32;16.40;99.90
10247;DHT22;5168;47.854;7.944;2023-06-26T20:13:07;16.50;99.90
10247;DHT22;5168;47.854;7.944;2023-06-26T20:18:03;16.80;99.90
10247;DHT22;5168;47.854;7.944;2023-06-26T20:25:21;16.30;99.90
10247;DHT22;5168;47.854;7.944;2023-06-26T20:27:47;16.60;99.90
10247;DHT22;5168;47.854;7.944;2023-06-26T20:30:13;16.20;99.90
10247;DHT22;5168;47.854;7.944;2023-06-26T20:35:05;16.20;99.90
10247;DHT22;5168;47.854;7.944;2023-06-26T20:37:31;16.00;99.90
10247;DHT22;5168;47.854;7.944;2023-06-26T20:39:57;16.30;99.90
10247;DHT22;5168;47.854;7.944;2023-06-26T20:42:23;16.40;99.90
10247;DHT22;5168;47.854;7.944;2023-06-26T20:44:49;15.50;99.90
10247;DHT22;5168;47.854;7.944;2023-06-26T20:49:44;15.60;99.90
10247;DHT22;5168;47.854;7.944;2023-06-26T20:52:11;15.90;99.90
10247;DHT22;5168;47.854;7.944;2023-06-26T20:54:37;15.70;99.90
10247;DHT22;5168;47.854;7.944;2023-06-26T20:57:04;15.90;99.90
10247;DHT22;5168;47.854;7.944;2023-06-26T20:59:30;15.20;99.90
10247;DHT22;5168;47.854;7.944;2023-06-26T21:11:40;15.10;99.90
10247;DHT22;5168;47.854;7.944;2023-06-26T21:14:06;14.80;99.90
10247;DHT22;5168;47.854;7.944;2023-06-26T21:16:32;15.00;99.90
10247;DHT22;5168;47.854;7.944;2023-06-26T21:18:57;15.50;99.90
10247;DHT22;5168;47.854;7.944;2023-06-26T21:28:44;15.00;99.90
10247;DHT22;5168;47.854;7.944;2023-06-26T21:33:35;15.20;99.90
10247;DHT22;5168;47.854;7.944;2023-06-26T21:38:27;14.70;99.90
10247;DHT22;5168;47.854;7.944;2023-06-26T21:40:53;14.50;99.90
10247;DHT22;5168;47.854;7.944;2023-06-26T21:43:19;14.50;99.90
10247;DHT22;5168;47.854;7.944;2023-06-26T21:45:45;14.70;99.90
10247;DHT22;5168;47.854;7.944;2023-06-26T21:48:13;14.20;99.90
10247;DHT22;5168;47.854;7.944;2023-06-26T21:53:05;14.70;99.90
10247;DHT22;5168;47.854;7.944;2023-06-26T22:02:51;15.00;99.90
10247;DHT22;5168;47.854;7.944;2023-06-26T22:07:44;13.90;99.90
10247;DHT22;5168;47.854;7.944;2023-06-26T22:12:36;14.00;99.90
10247;DHT22;5168;47.854;7.944;2023-06-26T22:15:02;14.30;99.90
10247;DHT22;5168;47.854;7.944;2023-06-26T22:17:29;14.10;99.90
10247;DHT22;5168;47.854;7.944;2023-06-26T22:19:58;14.10;99.90
10247;DHT22;5168;47.854;7.944;2023-06-26T22:22:25;14.00;99.90
10247;DHT22;5168;47.854;7.944;2023-06-26T22:24:50;13.70;99.90
10247;DHT22;5168;47.854;7.944;2023-06-26T22:27:16;13.50;99.90
10247;DHT22;5168;47.854;7.944;2023-06-26T22:32:08;14.40;99.90
10247;DHT22;5168;47.854;7.944;2023-06-26T22:34:33;14.00;99.90
10247;DHT22;5168;47.854;7.944;2023-06-26T22:36:59;13.50;99.90
10247;DHT22;5168;47.854;7.944;2023-06-26T22:41:51;13.60;99.90
10247;DHT22;5168;47.854;7.944;2023-06-26T22:46:42;13.50;99.90
10247;DHT22;5168;47.854;7.944;2023-06-26T22:49:08;13.40;99.90
10247;DHT22;5168;47.854;7.944;2023-06-26T22:56:29;13.70;99.90
10247;DHT22;5168;47.854;7.944;2023-06-26T22:58:55;13.90;99.90
10247;DHT22;5168;47.854;7.944;2023-06-26T23:01:20;13.20;99.90
10247;DHT22;5168;47.854;7.944;2023-06-26T23:03:46;13.30;99.90
10247;DHT22;5168;47.854;7.944;2023-06-26T23:08:37;12.90;99.90
10247;DHT22;5168;47.854;7.944;2023-06-26T23:11:03;13.00;99.90
10247;DHT22;5168;47.854;7.944;2023-06-26T23:13:28;13.30;99.90